Time;durP1;ratioP1;P1;durP2;ratioP2;P2;SDS_P1;SDS_P2;PMS_P1;PMS_P2;Temp;Humidity;BMP_temperature;BMP_pressure;BME280_temperature;BME280_humidity;BME280_pressure;Samples;Min_cycle;Max_cycle;Signal;HPM_P1;HPM_P2
2023/05/16 00:02:15;;;;;;;11.98;7.72;;;10.40;99.90;;;;;;5040209;28;20042;-69
2023/05/16 00:04:41;;;;;;;12.20;7.80;;;10.40;99.90;;;;;;4989799;28;20052;-69
2023/05/16 00:07:06;;;;;;;14.25;8.25;;;10.50;99.90;;;;;;5010875;28;20180;-69
2023/05/16 00:09:32;;;;;;;9.30;7.90;;;10.50;99.90;;;;;;5021330;28;20045;-70
2023/05/16 00:11:58;;;;;;;11.98;7.00;;;10.50;99.90;;;;;;5006397;28;20050;-69
2023/05/16 00:14:25;;;;;;;12.07;7.30;;;10.50;99.90;;;;;;4992245;28;20092;-69
2023/05/16 00:16:52;;;;;;;10.75;7.07;;;10.40;99.90;;;;;;4989959;28;20069;-69
2023/05/16 00:19:19;;;;;;;11.90;6.75;;;10.40;99.90;;;;;;5014326;28;20394;-69
2023/05/16 00:21:45;;;;;;;13.60;8.13;;;10.40;99.90;;;;;;4980444;28;20073;-69
2023/05/16 00:24:10;;;;;;;11.52;6.93;;;10.40;99.90;;;;;;5005001;28;20549;-69
2023/05/16 00:26:36;;;;;;;9.60;6.28;;;10.40;99.90;;;;;;5007893;28;20081;-69
2023/05/16 00:29:02;;;;;;;8.77;5.18;;;10.50;99.90;;;;;;4994020;28;20092;-69
2023/05/16 00:31:28;;;;;;;7.68;5.45;;;10.50;99.90;;;;;;5011353;28;20073;-69
2023/05/16 00:33:54;;;;;;;8.73;5.45;;;10.50;99.90;;;;;;5027329;28;20639;-69
2023/05/16 00:36:20;;;;;;;8.45;5.63;;;10.70;99.90;;;;;;5008058;28;20050;-69
2023/05/16 00:38:46;;;;;;;8.88;6.25;;;10.60;99.90;;;;;;4987179;28;20450;-69
2023/05/16 00:41:12;;;;;;;9.02;5.90;;;10.60;99.90;;;;;;4993448;28;20050;-69
2023/05/16 00:43:38;;;;;;;7.63;6.18;;;10.60;99.90;;;;;;4975954;28;20049;-69
2023/05/16 00:46:04;;;;;;;11.82;5.85;;;10.60;99.90;;;;;;5004464;28;20080;-69
2023/05/16 00:48:30;;;;;;;11.15;5.20;;;10.60;99.90;;;;;;5011482;28;20466;-69
2023/05/16 00:50:57;;;;;;;8.18;4.10;;;10.60;99.90;;;;;;4983607;28;20061;-69
2023/05/16 00:53:23;;;;;;;9.68;4.03;;;10.60;99.90;;;;;;4995208;28;20442;-69
2023/05/16 00:55:49;;;;;;;8.05;4.20;;;10.50;99.90;;;;;;4987072;28;20088;-70
2023/05/16 00:58:15;;;;;;;9.73;4.05;;;10.50;99.90;;;;;;4983722;28;20053;-70
2023/05/16 01:00:41;;;;;;;7.28;3.80;;;10.60;99.90;;;;;;5003760;28;20054;-70
2023/05/16 01:03:07;;;;;;;6.15;3.50;;;10.70;99.90;;;;;;5020828;28;20061;-70
2023/05/16 01:05:33;;;;;;;6.15;3.80;;;10.70;99.90;;;;;;4974844;28;20103;-70
2023/05/16 01:07:58;;;;;;;9.15;3.75;;;10.60;99.90;;;;;;5005185;28;20065;-70
2023/05/16 01:10:25;;;;;;;8.00;3.47;;;10.60;99.90;;;;;;4988039;28;20050;-70
2023/05/16 01:13:02;;;;;;;6.78;3.70;;;10.60;99.90;;;;;;5001353;28;20112;-70
2023/05/16 01:15:31;;;;;;;5.85;3.90;;;10.80;99.90;;;;;;5004230;28;20113;-70
2023/05/16 01:18:13;;;;;;;4.53;3.45;;;10.70;99.90;;;;;;5010469;28;20124;-70
2023/05/16 01:20:48;;;;;;;7.13;3.72;;;10.70;99.90;;;;;;4991500;28;20069;-70
2023/05/16 01:23:40;;;;;;;6.88;4.22;;;10.70;99.90;;;;;;5003601;28;20057;-70
2023/05/16 01:26:21;;;;;;;7.28;3.85;;;10.80;99.90;;;;;;5006795;28;20084;-70
2023/05/16 01:28:47;;;;;;;5.90;3.97;;;10.80;99.90;;;;;;5010560;28;20050;-70
2023/05/16 01:31:13;;;;;;;9.05;4.20;;;10.70;99.90;;;;;;4998736;28;20057;-70
2023/05/16 01:33:39;;;;;;;7.47;4.18;;;10.70;99.90;;;;;;5007346;28;20049;-70
2023/05/16 01:36:25;;;;;;;6.30;4.18;;;10.80;99.90;;;;;;4994507;28;20374;-70
2023/05/16 01:39:09;;;;;;;8.32;4.15;;;10.80;99.90;;;;;;4999975;28;20054;-70
2023/05/16 01:41:42;;;;;;;8.98;4.50;;;10.80;99.90;;;;;;5009074;28;20065;-70
2023/05/16 01:44:15;;;;;;;5.95;3.92;;;10.80;99.90;;;;;;5014686;28;20061;-69
2023/05/16 01:46:41;;;;;;;12.40;4.07;;;10.90;99.90;;;;;;5009084;28;20471;-70
2023/05/16 01:49:20;;;;;;;8.68;4.43;;;10.90;99.90;;;;;;4994835;28;20058;-69
2023/05/16 01:51:48;;;;;;;;;;;10.80;99.90;;;;;;4998223;28;20060;-69
2023/05/16 01:54:14;;;;;;;5.25;3.70;;;10.80;99.90;;;;;;4997000;28;19955;-69
2023/05/16 01:56:40;;;;;;;3.88;2.92;;;10.70;99.90;;;;;;5011726;28;20065;-69
2023/05/16 01:59:06;;;;;;;6.07;2.90;;;10.70;99.90;;;;;;4985337;28;20056;-70
2023/05/16 02:01:32;;;;;;;6.57;3.25;;;10.60;99.90;;;;;;5013608;28;20469;-70
2023/05/16 02:03:58;;;;;;;5.53;3.35;;;10.50;99.90;;;;;;5014087;28;20050;-70
2023/05/16 02:06:24;;;;;;;7.53;3.40;;;10.50;99.90;;;;;;5013173;28;20045;-70
2023/05/16 02:08:54;;;;;;;6.55;3.40;;;10.50;99.90;;;;;;5008735;28;20046;-70
2023/05/16 02:11:21;;;;;;;10.95;3.97;;;10.60;99.90;;;;;;4997342;28;20054;-70
2023/05/16 02:13:46;;;;;;;8.43;3.90;;;10.40;99.90;;;;;;5013476;28;20041;-70
2023/05/16 02:16:12;;;;;;;8.13;3.33;;;10.40;99.90;;;;;;4977650;28;20050;-70
2023/05/16 02:18:38;;;;;;;5.57;3.03;;;10.50;99.90;;;;;;4991560;28;20042;-70
2023/05/16 02:21:03;;;;;;;9.05;3.70;;;10.50;99.90;;;;;;5027520;28;20129;-70
2023/05/16 02:23:29;;;;;;;6.90;3.20;;;10.60;99.90;;;;;;5013682;28;20034;-70
2023/05/16 02:25:55;;;;;;;6.90;3.28;;;10.60;99.90;;;;;;5007060;28;20038;-70
2023/05/16 02:28:21;;;;;;;9.15;3.38;;;10.60;99.90;;;;;;5013198;28;20490;-70
2023/05/16 02:30:58;;;;;;;12.00;3.50;;;10.60;99.90;;;;;;5011830;28;20099;-70
2023/05/16 02:33:25;;;;;;;7.82;3.38;;;10.60;99.90;;;;;;5031889;28;21061;-70
2023/05/16 02:35:51;;;;;;;7.03;3.45;;;10.60;99.90;;;;;;5011040;28;20045;-70
2023/05/16 02:38:19;;;;;;;10.98;3.85;;;10.70;99.90;;;;;;4996434;28;20050;-70
2023/05/16 02:40:46;;;;;;;9.73;3.70;;;10.80;99.90;;;;;;4993182;28;20062;-70
2023/05/16 02:43:12;;;;;;;6.28;3.40;;;10.80;99.90;;;;;;4993047;28;20045;-71
2023/05/16 02:45:37;;;;;;;5.80;3.05;;;10.80;99.90;;;;;;4995673;28;20111;-70
2023/05/16 02:48:03;;;;;;;7.53;3.78;;;10.70;99.90;;;;;;5012829;28;20049;-70
2023/05/16 02:50:29;;;;;;;8.63;3.40;;;10.70;99.90;;;;;;4972579;28;20099;-70
2023/05/16 02:52:55;;;;;;;8.10;4.57;;;10.60;99.90;;;;;;5013289;28;20045;-70
2023/05/16 02:55:20;;;;;;;6.65;3.05;;;10.70;99.90;;;;;;5013803;28;20052;-70
2023/05/16 02:57:46;;;;;;;6.07;3.65;;;10.70;99.90;;;;;;5008506;28;20146;-70
2023/05/16 03:00:13;;;;;;;8.02;3.65;;;10.70;99.90;;;;;;5004925;28;20046;-70
2023/05/16 03:02:39;;;;;;;8.52;3.40;;;10.80;99.90;;;;;;5015775;28;20049;-70
2023/05/16 03:05:05;;;;;;;7.63;3.20;;;10.80;99.90;;;;;;4985611;28;20042;-70
2023/05/16 03:07:31;;;;;;;6.32;3.00;;;10.70;99.90;;;;;;5012016;28;20413;-70
2023/05/16 03:09:57;;;;;;;8.52;3.03;;;10.70;99.90;;;;;;5011249;28;20049;-70
2023/05/16 03:12:22;;;;;;;8.65;3.30;;;10.80;99.90;;;;;;5024949;28;20103;-70
2023/05/16 03:14:48;;;;;;;10.60;3.30;;;10.80;99.90;;;;;;5004521;28;20061;-70
2023/05/16 03:17:14;;;;;;;6.90;2.58;;;10.80;99.90;;;;;;5003763;28;20058;-70
2023/05/16 03:19:39;;;;;;;7.53;2.80;;;10.90;99.90;;;;;;5002291;28;20040;-70
2023/05/16 03:22:05;;;;;;;8.45;3.42;;;10.90;99.90;;;;;;5023382;28;20181;-70
2023/05/16 03:24:31;;;;;;;6.95;2.92;;;10.90;99.90;;;;;;5008047;28;20045;-70
2023/05/16 03:26:58;;;;;;;8.38;3.00;;;11.00;99.90;;;;;;5010917;28;20052;-69
2023/05/16 03:29:24;;;;;;;9.10;3.20;;;10.90;99.90;;;;;;4976443;28;20037;-69
2023/05/16 03:31:50;;;;;;;6.03;2.80;;;11.00;99.90;;;;;;5005154;28;20081;-71
2023/05/16 03:34:16;;;;;;;8.65;3.03;;;10.90;99.90;;;;;;5001154;28;20136;-71
2023/05/16 03:36:42;;;;;;;8.15;3.08;;;10.80;99.90;;;;;;5004942;28;20045;-71
2023/05/16 03:39:07;;;;;;;8.65;3.47;;;10.80;99.90;;;;;;5006186;28;20045;-70
2023/05/16 03:41:33;;;;;;;8.30;3.15;;;10.80;99.90;;;;;;5007446;28;20116;-70
2023/05/16 03:43:59;;;;;;;7.60;3.17;;;10.80;99.90;;;;;;5010560;28;20049;-70
2023/05/16 03:46:25;;;;;;;10.27;3.00;;;10.70;99.90;;;;;;5013028;28;20377;-70
2023/05/16 03:48:51;;;;;;;7.28;3.10;;;10.70;99.90;;;;;;4999345;28;20058;-70
2023/05/16 03:51:16;;;;;;;9.35;3.40;;;10.70;99.90;;;;;;5015027;28;20092;-70
2023/05/16 03:53:42;;;;;;;8.63;3.17;;;10.70;99.90;;;;;;5020446;28;20132;-70
2023/05/16 03:56:08;;;;;;;9.48;3.20;;;10.70;99.90;;;;;;5009399;28;20481;-70
2023/05/16 03:58:33;;;;;;;11.25;3.22;;;10.70;99.90;;;;;;5012033;28;20462;-71
2023/05/16 04:00:59;;;;;;;8.68;2.80;;;10.60;99.90;;;;;;5008746;28;20058;-70
2023/05/16 04:03:27;;;;;;;7.90;3.17;;;10.80;99.90;;;;;;5003342;28;20050;-71
2023/05/16 04:05:54;;;;;;;8.40;2.85;;;10.70;99.90;;;;;;5008777;28;20038;-71
2023/05/16 04:08:20;;;;;;;7.43;2.50;;;10.70;99.90;;;;;;4989377;28;20046;-70
2023/05/16 04:10:46;;;;;;;4.95;2.90;;;10.70;99.90;;;;;;4991376;28;20968;-71
2023/05/16 04:13:11;;;;;;;7.43;2.83;;;10.60;99.90;;;;;;4993055;28;20046;-71
2023/05/16 04:15:38;;;;;;;8.18;3.00;;;10.50;99.90;;;;;;4992578;28;20116;-70
2023/05/16 04:18:04;;;;;;;6.60;2.75;;;10.50;99.90;;;;;;5011633;28;20038;-70
2023/05/16 04:20:29;;;;;;;8.15;3.25;;;10.40;99.90;;;;;;5037059;28;20051;-71
2023/05/16 04:22:55;;;;;;;5.35;3.00;;;10.50;99.90;;;;;;5000359;28;20088;-71
2023/05/16 04:25:21;;;;;;;7.95;3.72;;;10.50;99.90;;;;;;5018106;28;20049;-71
2023/05/16 04:27:46;;;;;;;6.65;3.17;;;10.50;99.90;;;;;;4998648;28;20542;-72
2023/05/16 04:30:13;;;;;;;8.30;3.28;;;10.50;99.90;;;;;;4988302;28;20064;-71
2023/05/16 04:32:39;;;;;;;5.45;2.83;;;10.30;99.90;;;;;;4992730;28;20046;-71
2023/05/16 04:35:08;;;;;;;6.45;3.28;;;10.20;99.90;;;;;;5011088;28;20053;-71
2023/05/16 04:37:34;;;;;;;6.25;2.88;;;10.30;99.90;;;;;;5043653;28;20070;-71
2023/05/16 04:40:00;;;;;;;5.50;1.98;;;10.30;99.90;;;;;;5011394;28;20413;-71
2023/05/16 04:42:26;;;;;;;5.95;2.70;;;10.20;99.90;;;;;;4998664;28;20374;-71
2023/05/16 04:44:52;;;;;;;5.93;1.92;;;10.20;99.90;;;;;;4999582;28;20061;-71
2023/05/16 04:47:17;;;;;;;4.28;1.77;;;10.30;99.90;;;;;;5007236;28;20054;-73
2023/05/16 04:49:43;;;;;;;6.28;1.80;;;10.30;99.90;;;;;;4994574;28;20042;-72
2023/05/16 04:52:10;;;;;;;7.53;1.77;;;10.40;99.90;;;;;;4994607;28;20053;-72
2023/05/16 04:54:37;;;;;;;9.00;2.50;;;10.40;99.90;;;;;;4981546;28;20061;-72
2023/05/16 04:57:03;;;;;;;5.50;1.90;;;10.50;99.90;;;;;;5001132;28;20481;-72
2023/05/16 04:59:29;;;;;;;6.38;2.00;;;10.40;99.90;;;;;;5012558;28;20124;-71
2023/05/16 05:01:54;;;;;;;7.97;1.77;;;10.40;99.90;;;;;;5010847;28;20050;-71
2023/05/16 05:04:21;;;;;;;8.90;1.88;;;10.50;99.90;;;;;;4991558;28;20379;-71
2023/05/16 05:06:47;;;;;;;8.95;2.10;;;10.50;99.90;;;;;;5032528;28;20050;-71
2023/05/16 05:09:13;;;;;;;5.85;1.98;;;10.50;99.90;;;;;;4995156;28;20053;-71
2023/05/16 05:11:38;;;;;;;7.80;2.10;;;10.60;99.90;;;;;;4996212;28;20054;-71
2023/05/16 05:14:04;;;;;;;7.30;2.00;;;10.60;99.90;;;;;;5010862;28;20100;-71
2023/05/16 05:16:30;;;;;;;7.38;2.05;;;10.60;99.90;;;;;;4994286;28;20058;-71
2023/05/16 05:18:56;;;;;;;7.57;2.13;;;10.60;99.90;;;;;;5010638;28;20128;-70
2023/05/16 05:21:24;;;;;;;6.70;2.10;;;10.60;99.90;;;;;;5002880;28;20449;-69
2023/05/16 05:23:49;;;;;;;7.22;2.22;;;10.70;99.90;;;;;;5014801;28;20397;-70
2023/05/16 05:26:16;;;;;;;9.77;2.28;;;10.70;99.90;;;;;;5002144;28;20045;-70
2023/05/16 05:28:42;;;;;;;8.35;1.90;;;10.60;99.90;;;;;;4997069;28;20085;-70
2023/05/16 05:31:08;;;;;;;7.65;1.65;;;10.70;99.90;;;;;;4998351;28;20124;-70
2023/05/16 05:33:33;;;;;;;11.32;1.92;;;10.70;99.90;;;;;;5018009;28;20052;-70
2023/05/16 05:36:00;;;;;;;7.63;1.70;;;10.70;99.90;;;;;;5003446;28;20033;-71
2023/05/16 05:38:26;;;;;;;10.70;2.10;;;10.70;99.90;;;;;;4986824;28;20705;-70
2023/05/16 05:40:51;;;;;;;10.23;2.30;;;10.80;99.90;;;;;;5010667;28;20454;-70
2023/05/16 05:43:17;;;;;;;10.63;2.17;;;10.80;99.90;;;;;;5013786;28;20054;-70
2023/05/16 05:45:43;;;;;;;8.02;2.03;;;10.80;99.90;;;;;;4997619;28;20052;-70
2023/05/16 05:48:09;;;;;;;8.10;2.10;;;10.80;99.90;;;;;;4995476;28;20099;-71
2023/05/16 05:50:35;;;;;;;12.40;2.45;;;10.70;99.90;;;;;;5013989;28;20042;-71
2023/05/16 05:53:01;;;;;;;12.07;3.15;;;10.80;99.90;;;;;;5013966;28;20046;-71
2023/05/16 05:55:27;;;;;;;11.50;2.63;;;10.60;99.90;;;;;;5018291;28;20180;-71
2023/05/16 05:57:53;;;;;;;10.10;2.53;;;10.50;99.90;;;;;;5023710;28;20731;-71
2023/05/16 06:00:19;;;;;;;10.35;2.78;;;10.50;99.90;;;;;;5000912;28;20538;-71
2023/05/16 06:02:46;;;;;;;10.30;2.63;;;10.40;99.90;;;;;;5041218;28;20042;-70
2023/05/16 06:05:11;;;;;;;12.35;2.55;;;10.20;99.90;;;;;;5015831;28;20534;-70
2023/05/16 06:07:37;;;;;;;10.55;2.40;;;10.10;99.90;;;;;;4994152;28;20054;-70
2023/05/16 06:10:04;;;;;;;13.05;2.70;;;10.10;99.90;;;;;;5013479;28;20057;-70
2023/05/16 06:12:31;;;;;;;10.80;2.40;;;10.20;99.90;;;;;;4978832;28;20068;-70
2023/05/16 06:14:57;;;;;;;16.67;2.83;;;10.10;99.90;;;;;;5005362;28;20057;-71
2023/05/16 06:17:22;;;;;;;15.02;3.15;;;10.00;99.90;;;;;;5015470;28;20042;-71
2023/05/16 06:19:51;;;;;;;11.95;2.67;;;10.00;99.90;;;;;;4984762;28;20131;-71
2023/05/16 06:22:17;;;;;;;15.27;2.97;;;10.00;99.90;;;;;;5015393;28;20046;-72
2023/05/16 06:24:43;;;;;;;13.50;2.80;;;10.10;99.90;;;;;;4990262;28;20046;-72
2023/05/16 06:27:09;;;;;;;16.63;2.67;;;10.10;99.90;;;;;;4995498;28;20042;-72
2023/05/16 06:29:35;;;;;;;17.33;3.20;;;10.30;99.90;;;;;;4997674;28;20092;-71
2023/05/16 06:32:01;;;;;;;17.38;2.47;;;11.00;99.90;;;;;;5015352;28;20052;-76
2023/05/16 06:34:27;;;;;;;16.98;3.05;;;11.20;99.90;;;;;;5000564;28;20544;-75
2023/05/16 06:36:54;;;;;;;17.50;2.80;;;10.70;99.90;;;;;;4982400;28;20137;-73
2023/05/16 06:39:20;;;;;;;11.55;2.60;;;10.70;99.90;;;;;;5030234;28;20046;-74
2023/05/16 06:41:45;;;;;;;19.65;3.55;;;10.50;99.90;;;;;;5024163;28;20046;-73
2023/05/16 06:44:11;;;;;;;19.35;3.08;;;10.50;99.90;;;;;;5013860;28;20076;-73
2023/05/16 06:46:37;;;;;;;15.98;2.50;;;10.80;99.90;;;;;;4997860;28;20107;-74
2023/05/16 06:49:03;;;;;;;14.55;2.50;;;10.80;99.90;;;;;;4997696;28;20129;-73
2023/05/16 06:51:30;;;;;;;28.27;3.80;;;10.80;99.90;;;;;;4985385;28;20046;-73
2023/05/16 06:53:56;;;;;;;12.95;2.40;;;10.70;99.90;;;;;;4994428;28;20042;-73
2023/05/16 06:56:22;;;;;;;16.00;2.83;;;10.90;99.90;;;;;;5013485;28;20046;-74
2023/05/16 06:58:48;;;;;;;20.63;2.97;;;11.00;99.90;;;;;;5013421;28;20050;-73
2023/05/16 07:01:15;;;;;;;18.90;2.42;;;11.10;99.90;;;;;;5019423;28;20111;-73
2023/05/16 07:03:41;;;;;;;16.50;3.55;;;11.10;99.90;;;;;;5001893;28;20042;-73
2023/05/16 07:06:06;;;;;;;16.00;2.72;;;11.20;99.90;;;;;;4992363;28;20048;-73
2023/05/16 07:08:34;;;;;;;16.15;2.28;;;10.90;99.90;;;;;;4997879;28;20068;-73
2023/05/16 07:11:00;;;;;;;12.80;2.38;;;10.80;99.90;;;;;;5013871;28;20038;-73
2023/05/16 07:13:26;;;;;;;17.55;3.10;;;10.80;99.90;;;;;;5009370;28;20049;-73
2023/05/16 07:15:52;;;;;;;13.88;2.67;;;10.80;99.90;;;;;;5010866;28;20062;-72
2023/05/16 07:18:18;;;;;;;15.38;2.47;;;10.70;99.90;;;;;;4980540;28;20062;-72
2023/05/16 07:20:44;;;;;;;17.92;2.47;;;10.70;99.90;;;;;;4983508;28;20050;-72
2023/05/16 07:23:10;;;;;;;9.88;2.00;;;10.80;99.90;;;;;;4980786;28;20050;-72
2023/05/16 07:25:36;;;;;;;15.00;3.35;;;11.00;99.90;;;;;;4995128;28;20046;-72
2023/05/16 07:28:02;;;;;;;15.00;2.53;;;11.10;99.90;;;;;;4994047;28;20542;-72
2023/05/16 07:30:28;;;;;;;17.13;2.58;;;11.00;99.90;;;;;;5001456;28;20061;-72
2023/05/16 07:32:54;;;;;;;15.15;2.42;;;11.10;99.90;;;;;;5015244;28;20124;-72
2023/05/16 07:35:19;;;;;;;12.38;2.42;;;11.10;99.90;;;;;;4999783;28;20869;-73
2023/05/16 07:37:45;;;;;;;19.95;2.97;;;11.10;99.90;;;;;;5012718;28;20041;-74
2023/05/16 07:40:12;;;;;;;15.60;2.63;;;11.00;99.90;;;;;;4996553;28;20080;-73
2023/05/16 07:42:37;;;;;;;13.65;2.35;;;10.90;99.90;;;;;;4979040;28;20201;-71
2023/05/16 07:45:05;;;;;;;16.27;2.35;;;11.00;99.90;;;;;;4977734;28;20054;-71
2023/05/16 07:47:31;;;;;;;15.25;2.28;;;11.00;99.70;;;;;;4989777;28;20060;-71
2023/05/16 07:49:57;;;;;;;9.93;2.60;;;10.70;99.30;;;;;;5010879;28;20053;-71
2023/05/16 07:52:23;;;;;;;17.42;2.10;;;10.80;99.90;;;;;;4988763;28;20073;-71
2023/05/16 07:54:49;;;;;;;16.40;2.60;;;10.90;99.40;;;;;;4997856;28;20066;-71
2023/05/16 07:57:15;;;;;;;12.20;2.25;;;11.10;99.20;;;;;;4995467;28;20053;-71
2023/05/16 07:59:41;;;;;;;16.77;1.83;;;11.20;99.10;;;;;;5002511;28;20042;-71
2023/05/16 08:02:08;;;;;;;14.98;2.95;;;11.40;99.50;;;;;;4979909;28;20046;-71
2023/05/16 08:04:33;;;;;;;12.27;2.08;;;11.30;97.90;;;;;;4998864;28;20050;-71
2023/05/16 08:06:59;;;;;;;10.05;1.75;;;11.40;98.60;;;;;;4974085;28;20041;-72
2023/05/16 08:09:25;;;;;;;13.43;1.92;;;11.50;98.60;;;;;;4980106;28;20095;-71
2023/05/16 08:11:51;;;;;;;13.18;2.22;;;11.40;99.10;;;;;;5011898;28;20493;-71
2023/05/16 08:14:17;;;;;;;18.27;2.72;;;11.30;99.20;;;;;;5030427;28;20069;-72
2023/05/16 08:16:43;;;;;;;12.75;2.35;;;11.40;99.30;;;;;;4996274;28;20050;-71
2023/05/16 08:19:09;;;;;;;11.90;2.28;;;11.50;99.70;;;;;;5011809;28;20489;-71
2023/05/16 08:21:35;;;;;;;17.80;2.97;;;11.40;99.90;;;;;;4999450;28;20451;-70
2023/05/16 08:24:00;;;;;;;10.75;2.50;;;11.30;98.50;;;;;;5012925;28;20046;-70
2023/05/16 08:26:27;;;;;;;15.02;2.42;;;11.20;98.10;;;;;;5033170;28;20096;-70
2023/05/16 08:28:52;;;;;;;12.00;2.22;;;11.10;98.00;;;;;;4986209;28;20045;-70
2023/05/16 08:31:18;;;;;;;13.00;2.13;;;11.10;97.70;;;;;;4982790;28;20042;-70
2023/05/16 08:33:44;;;;;;;11.93;2.20;;;11.20;97.60;;;;;;5010710;28;20491;-71
2023/05/16 08:36:10;;;;;;;11.52;2.15;;;11.50;97.20;;;;;;4994739;28;20050;-70
2023/05/16 08:38:35;;;;;;;13.60;2.45;;;11.60;97.00;;;;;;4976517;28;20533;-70
2023/05/16 08:41:02;;;;;;;11.95;2.20;;;11.60;96.80;;;;;;5008343;28;20042;-70
2023/05/16 08:43:27;;;;;;;12.57;2.28;;;11.60;95.70;;;;;;5013574;28;20735;-70
2023/05/16 08:45:53;;;;;;;9.82;1.73;;;11.50;94.60;;;;;;5011504;28;20068;-70
2023/05/16 08:48:21;;;;;;;12.35;1.80;;;11.50;93.90;;;;;;5011286;28;20042;-71
2023/05/16 08:50:47;;;;;;;11.32;2.13;;;11.60;93.30;;;;;;5015234;28;20460;-70
2023/05/16 08:53:14;;;;;;;13.50;2.13;;;11.60;93.20;;;;;;5015261;28;20064;-70
2023/05/16 08:55:40;;;;;;;8.93;1.67;;;11.60;93.50;;;;;;4999696;28;20046;-70
2023/05/16 08:58:06;;;;;;;17.60;1.73;;;11.40;93.40;;;;;;4993767;28;20057;-70
2023/05/16 09:00:31;;;;;;;11.55;2.08;;;11.50;93.50;;;;;;4995008;28;20666;-70
2023/05/16 09:02:57;;;;;;;15.20;2.25;;;11.40;92.90;;;;;;4982957;28;20467;-70
2023/05/16 09:05:23;;;;;;;12.13;1.92;;;11.50;93.40;;;;;;5014430;28;20053;-70
2023/05/16 09:07:49;;;;;;;14.98;2.63;;;11.60;93.00;;;;;;5014886;28;20057;-70
2023/05/16 09:10:15;;;;;;;12.15;2.00;;;11.60;93.40;;;;;;5015479;28;20117;-70
2023/05/16 09:12:41;;;;;;;12.98;1.70;;;11.60;93.00;;;;;;5015655;28;20151;-70
2023/05/16 09:15:08;;;;;;;15.10;2.53;;;11.60;93.10;;;;;;4982679;28;20062;-69
2023/05/16 09:17:39;;;;;;;10.02;2.08;;;11.60;93.00;;;;;;4982471;28;20470;-69
2023/05/16 09:20:12;;;;;;;10.80;1.83;;;11.60;92.50;;;;;;5003266;28;20061;-69
2023/05/16 09:22:38;;;;;;;15.20;2.13;;;11.70;92.80;;;;;;5008400;28;20679;-69
2023/05/16 09:25:05;;;;;;;7.00;1.65;;;11.80;91.20;;;;;;5022285;28;20075;-70
2023/05/16 09:27:30;;;;;;;10.20;1.50;;;11.90;90.80;;;;;;4998337;28;20042;-70
2023/05/16 09:29:57;;;;;;;7.90;1.67;;;12.10;90.70;;;;;;4999788;28;20493;-70
2023/05/16 09:32:23;;;;;;;8.98;1.73;;;12.10;88.50;;;;;;5010040;28;20042;-70
2023/05/16 09:34:50;;;;;;;8.70;1.60;;;12.10;88.30;;;;;;4999630;28;20049;-70
2023/05/16 09:37:19;;;;;;;9.88;1.98;;;12.10;90.30;;;;;;4966593;28;20037;-70
2023/05/16 09:39:53;;;;;;;11.18;2.22;;;12.20;90.60;;;;;;4998921;28;20060;-73
2023/05/16 09:42:20;;;;;;;11.55;1.80;;;12.10;90.90;;;;;;4999406;28;20371;-73
2023/05/16 09:44:49;;;;;;;10.27;1.67;;;12.20;91.00;;;;;;4999515;28;20050;-73
2023/05/16 09:47:16;;;;;;;7.63;1.88;;;12.40;89.90;;;;;;4997579;28;20065;-73
2023/05/16 09:49:43;;;;;;;6.75;1.48;;;12.40;88.70;;;;;;4984197;28;20104;-73
2023/05/16 09:52:09;;;;;;;10.73;1.38;;;12.50;89.30;;;;;;4996025;28;20046;-73
2023/05/16 09:54:34;;;;;;;9.43;1.60;;;12.60;88.80;;;;;;4977955;28;20049;-74
2023/05/16 09:57:00;;;;;;;8.80;1.80;;;12.50;86.80;;;;;;5006333;28;20522;-73
2023/05/16 09:59:39;;;;;;;7.45;1.92;;;12.60;87.70;;;;;;5015681;28;20049;-75
2023/05/16 10:02:06;;;;;;;8.85;1.90;;;12.70;86.30;;;;;;5015402;28;20080;-73
2023/05/16 10:04:37;;;;;;;10.70;2.00;;;12.70;85.20;;;;;;4983494;28;20042;-74
2023/05/16 10:07:04;;;;;;;6.82;1.45;;;12.90;85.30;;;;;;4993167;28;20042;-74
2023/05/16 10:09:32;;;;;;;7.05;1.42;;;12.90;84.50;;;;;;4999322;28;20049;-74
2023/05/16 10:12:02;;;;;;;9.10;2.10;;;13.20;84.80;;;;;;5016200;28;20081;-74
2023/05/16 10:14:29;;;;;;;8.32;2.53;;;13.20;82.60;;;;;;4997345;28;20050;-73
2023/05/16 10:16:55;;;;;;;6.43;1.60;;;13.10;83.00;;;;;;5014894;28;20091;-73
2023/05/16 10:19:20;;;;;;;10.07;1.42;;;13.20;81.90;;;;;;5008441;28;20041;-73
2023/05/16 10:21:50;;;;;;;12.00;1.70;;;13.30;81.50;;;;;;5029311;28;20137;-73
2023/05/16 10:24:20;;;;;;;10.90;2.33;;;13.10;80.30;;;;;;5031268;28;20045;-73
2023/05/16 10:26:46;;;;;;;3.78;1.20;;;13.20;80.70;;;;;;5030793;28;20121;-74
2023/05/16 10:29:12;;;;;;;11.75;1.58;;;13.30;81.30;;;;;;5022192;28;20061;-73
2023/05/16 10:31:38;;;;;;;8.98;1.63;;;13.30;80.80;;;;;;4997833;28;20077;-74
2023/05/16 10:34:03;;;;;;;11.02;1.50;;;13.30;82.00;;;;;;4963065;28;20048;-73
2023/05/16 10:36:30;;;;;;;8.00;1.17;;;13.40;82.70;;;;;;5011898;28;20056;-73
2023/05/16 10:38:56;;;;;;;7.32;1.45;;;13.40;81.10;;;;;;4995763;28;20049;-73
2023/05/16 10:41:22;;;;;;;9.45;1.50;;;13.40;79.70;;;;;;4998607;28;20049;-73
2023/05/16 10:43:57;;;;;;;6.03;1.50;;;13.40;80.20;;;;;;5014641;28;20046;-73
2023/05/16 10:46:23;;;;;;;4.63;1.08;;;13.40;77.50;;;;;;4982396;28;20659;-73
2023/05/16 10:48:48;;;;;;;7.80;1.30;;;13.40;77.40;;;;;;4997832;28;20054;-74
2023/05/16 10:51:34;;;;;;;6.93;1.33;;;13.70;76.80;;;;;;5007689;28;20116;-73
2023/05/16 10:54:11;;;;;;;9.18;1.40;;;13.80;77.90;;;;;;4998262;28;20053;-73
2023/05/16 10:56:37;;;;;;;8.67;1.67;;;13.90;79.10;;;;;;5014718;28;20376;-74
2023/05/16 10:59:06;;;;;;;8.02;1.70;;;13.80;80.40;;;;;;5007351;28;20034;-71
2023/05/16 11:01:33;;;;;;;11.27;1.73;;;13.40;79.70;;;;;;5000218;28;20046;-72
2023/05/16 11:04:03;;;;;;;8.77;1.65;;;13.50;76.70;;;;;;5013312;28;20052;-71
2023/05/16 11:06:40;;;;;;;5.45;1.20;;;13.20;73.50;;;;;;5011559;28;20049;-72
2023/05/16 11:09:13;;;;;;;7.88;1.80;;;13.30;75.10;;;;;;5006047;28;20056;-72
2023/05/16 11:11:48;;;;;;;4.68;0.90;;;13.60;74.30;;;;;;5009652;28;20045;-72
2023/05/16 11:14:32;;;;;;;4.82;1.10;;;13.80;71.30;;;;;;5003907;28;20128;-72
2023/05/16 11:17:08;;;;;;;5.53;1.48;;;13.90;71.00;;;;;;4972904;28;1130577;-72
2023/05/16 11:19:35;;;;;;;10.07;1.20;;;14.10;73.10;;;;;;5006380;28;20041;-72
2023/05/16 11:22:22;;;;;;;3.63;1.17;;;14.30;72.10;;;;;;5008221;28;20462;-72
2023/05/16 11:24:56;;;;;;;3.97;0.82;;;14.20;71.30;;;;;;5007044;28;20038;-72
2023/05/16 11:27:26;;;;;;;11.25;1.70;;;14.20;70.40;;;;;;5013694;28;20080;-70
2023/05/16 11:29:52;;;;;;;7.45;1.20;;;14.50;71.30;;;;;;4995914;28;20053;-72
2023/05/16 11:32:20;;;;;;;6.40;1.23;;;14.50;70.40;;;;;;4992557;28;20501;-71
2023/05/16 11:34:47;;;;;;;7.88;1.10;;;14.20;71.40;;;;;;5018655;28;20145;-71
2023/05/16 11:37:14;;;;;;;7.90;1.00;;;14.40;71.50;;;;;;4982528;28;20481;-74
2023/05/16 11:39:40;;;;;;;5.20;1.35;;;14.40;72.50;;;;;;4998400;28;20041;-73
2023/05/16 11:42:05;;;;;;;7.47;1.40;;;14.10;72.20;;;;;;4998290;28;20052;-73
2023/05/16 11:44:32;;;;;;;8.20;1.65;;;14.00;74.00;;;;;;5008326;28;20045;-73
2023/05/16 11:46:59;;;;;;;5.55;1.33;;;14.30;74.70;;;;;;5007428;28;20084;-75
2023/05/16 11:49:29;;;;;;;7.15;1.35;;;14.60;76.90;;;;;;5020869;28;20099;-75
2023/05/16 11:51:56;;;;;;;7.80;1.27;;;14.40;73.60;;;;;;5016743;28;20049;-75
2023/05/16 11:54:23;;;;;;;9.88;1.00;;;14.30;75.30;;;;;;4986846;28;20053;-75
2023/05/16 11:56:49;;;;;;;4.43;1.55;;;14.50;78.60;;;;;;5021376;28;20084;-75
2023/05/16 11:59:16;;;;;;;7.93;1.45;;;14.50;77.70;;;;;;4986299;28;20046;-72
2023/05/16 12:01:43;;;;;;;5.13;1.25;;;14.50;77.60;;;;;;4982603;28;20042;-73
2023/05/16 12:04:13;;;;;;;6.32;1.17;;;14.40;78.00;;;;;;5001626;28;20057;-73
2023/05/16 12:06:39;;;;;;;6.38;1.40;;;14.70;77.50;;;;;;4973302;28;20061;-74
2023/05/16 12:09:12;;;;;;;6.53;1.52;;;14.90;73.60;;;;;;4977751;28;20037;-76
2023/05/16 12:14:10;;;;;;;6.50;1.17;;;15.20;73.40;;;;;;3919859;28;20070;-74
2023/05/16 12:16:36;;;;;;;6.95;1.45;;;15.40;73.00;;;;;;4999230;28;20053;-74
2023/05/16 12:19:03;;;;;;;6.68;1.60;;;15.60;74.60;;;;;;5011704;28;20061;-75
2023/05/16 12:21:30;;;;;;;4.90;1.30;;;15.50;71.30;;;;;;4986664;28;20055;-73
2023/05/16 12:23:57;;;;;;;6.30;1.45;;;15.50;73.70;;;;;;4999653;28;20119;-72
2023/05/16 12:26:27;;;;;;;5.72;1.52;;;15.40;73.40;;;;;;5008258;28;20052;-73
2023/05/16 12:28:56;;;;;;;16.17;1.10;;;15.40;71.40;;;;;;4981373;28;20046;-72
2023/05/16 12:31:22;;;;;;;4.07;1.00;;;15.20;69.90;;;;;;4992829;28;20097;-72
2023/05/16 12:33:51;;;;;;;5.13;1.27;;;15.00;69.30;;;;;;5012723;28;20048;-74
2023/05/16 12:36:18;;;;;;;6.50;1.40;;;15.00;70.00;;;;;;4961021;28;20042;-75
2023/05/16 12:38:46;;;;;;;5.13;1.08;;;15.10;70.10;;;;;;4962400;28;20042;-74
2023/05/16 12:41:17;;;;;;;7.80;1.05;;;15.20;71.90;;;;;;5012613;28;20151;-75
2023/05/16 12:43:42;;;;;;;9.85;1.40;;;15.40;73.20;;;;;;4980265;28;20041;-74
2023/05/16 12:46:10;;;;;;;9.88;1.42;;;15.40;68.90;;;;;;4995377;28;20044;-74